createdAt,value
2018-10-01T00:00:13.988Z,8.80
2018-10-01T00:02:42.055Z,8.80
2018-10-01T00:05:21.940Z,8.80
2018-10-01T00:07:49.951Z,8.80
2018-10-01T00:10:29.794Z,8.80
2018-10-01T00:12:58.277Z,8.90
2018-10-01T00:15:26.497Z,8.90
2018-10-01T00:18:00.955Z,9.00
2018-10-01T00:20:39.489Z,9.10
2018-10-01T00:23:13.405Z,9.40
2018-10-01T00:25:41.512Z,9.30
2018-10-01T00:28:13.538Z,9.40
2018-10-01T00:30:43.902Z,9.50
2018-10-01T00:33:13.992Z,9.50
2018-10-01T00:35:42.104Z,9.60
2018-10-01T00:38:16.503Z,9.60
2018-10-01T00:40:48.563Z,9.70
2018-10-01T00:43:16.645Z,9.70
2018-10-01T00:45:49.639Z,9.80
2018-10-01T00:48:17.792Z,9.80
2018-10-01T00:50:47.861Z,9.90
2018-10-01T00:53:19.201Z,9.90
2018-10-01T00:55:55.415Z,9.90
2018-10-01T00:58:23.488Z,10.00
2018-10-01T01:03:31.286Z,10.00
2018-10-01T01:06:11.174Z,10.00
2018-10-01T01:08:39.292Z,10.00
2018-10-01T01:11:14.517Z,10.00
2018-10-01T01:13:50.008Z,10.00
2018-10-01T01:16:22.498Z,9.90
2018-10-01T01:19:04.502Z,9.90
2018-10-01T01:21:32.698Z,9.90
2018-10-01T01:24:00.708Z,9.90
2018-10-01T01:26:28.816Z,9.90
2018-10-01T01:28:56.870Z,9.90
2018-10-01T01:31:27.782Z,9.90
2018-10-01T01:33:55.883Z,9.90
2018-10-01T01:36:30.457Z,9.90
2018-10-01T01:39:03.875Z,10.00
2018-10-01T01:41:40.622Z,9.90
2018-10-01T01:44:08.693Z,9.90
2018-10-01T01:49:20.797Z,9.90
2018-10-01T01:51:55.205Z,9.90
2018-10-01T01:54:27.300Z,9.90
2018-10-01T01:57:00.752Z,10.00
2018-10-01T01:59:33.823Z,10.00
2018-10-01T02:02:01.918Z,10.00
2018-10-01T02:07:09.751Z,10.00
2018-10-01T02:09:52.478Z,10.00
2018-10-01T02:12:20.622Z,10.00
2018-10-01T02:14:55.035Z,10.00
2018-10-01T02:17:27.389Z,10.00
2018-10-01T02:19:58.629Z,10.00
2018-10-01T02:22:27.037Z,10.00
2018-10-01T02:24:55.076Z,10.00
2018-10-01T02:27:23.640Z,10.00
2018-10-01T02:29:58.095Z,10.10
2018-10-01T02:32:34.555Z,10.00
2018-10-01T02:35:06.822Z,10.10
2018-10-01T02:37:41.210Z,10.10
2018-10-01T02:40:21.146Z,10.00
2018-10-01T02:42:49.337Z,10.10
2018-10-01T02:45:27.276Z,10.00
2018-10-01T02:47:57.782Z,10.10
2018-10-01T02:50:37.675Z,10.10
2018-10-01T02:53:13.411Z,10.10
2018-10-01T02:55:41.462Z,10.00
2018-10-01T02:58:21.056Z,10.00
2018-10-01T03:00:49.389Z,10.00
2018-10-01T03:03:24.147Z,10.00
2018-10-01T03:05:52.176Z,10.00
2018-10-01T03:08:24.305Z,10.00
2018-10-01T03:10:54.677Z,10.00
2018-10-01T03:13:23.168Z,10.00
2018-10-01T03:15:51.283Z,10.00
2018-10-01T03:18:31.046Z,10.00
2018-10-01T03:20:59.129Z,9.90
2018-10-01T03:23:33.567Z,9.90
2018-10-01T03:26:05.946Z,9.90
2018-10-01T03:28:40.436Z,9.90
2018-10-01T03:31:12.725Z,9.90
2018-10-01T03:33:46.233Z,9.90
2018-10-01T03:36:18.304Z,9.80
2018-10-01T03:38:46.475Z,9.80
2018-10-01T03:41:18.986Z,9.80
2018-10-01T03:43:51.209Z,9.80
2018-10-01T03:46:22.156Z,9.80
2018-10-01T03:48:50.209Z,9.80
2018-10-01T03:51:24.428Z,9.80
2018-10-01T03:53:54.424Z,9.80
2018-10-01T03:56:22.545Z,9.80
2018-10-01T03:58:57.043Z,9.80
2018-10-01T04:01:29.347Z,9.70
2018-10-01T04:04:00.464Z,9.70
2018-10-01T04:06:28.527Z,9.70
2018-10-01T04:08:59.664Z,9.70
2018-10-01T04:11:27.887Z,9.70
2018-10-01T04:13:56.047Z,9.70
2018-10-01T04:16:30.487Z,9.70
2018-10-01T04:19:01.287Z,9.70
2018-10-01T04:21:29.684Z,9.70
2018-10-01T04:23:57.731Z,9.70
2018-10-01T04:26:26.184Z,9.60
2018-10-01T04:28:58.348Z,9.60
2018-10-01T04:31:26.454Z,9.60
2018-10-01T04:34:00.998Z,9.60
2018-10-01T04:36:33.195Z,9.50
2018-10-01T04:39:06.302Z,9.40
2018-10-01T04:41:34.607Z,9.40
2018-10-01T04:44:02.661Z,9.40
2018-10-01T04:46:38.210Z,9.40
2018-10-01T04:49:11.438Z,9.40
2018-10-01T04:51:44.685Z,9.30
2018-10-01T04:54:14.963Z,9.40
2018-10-01T04:56:43.013Z,9.40
2018-10-01T04:59:22.769Z,9.40
2018-10-01T05:01:50.886Z,9.30
2018-10-01T05:04:21.792Z,9.30
2018-10-01T05:06:49.830Z,9.30
2018-10-01T05:09:22.915Z,9.30
2018-10-01T05:11:50.990Z,9.30
2018-10-01T05:14:25.442Z,9.20
2018-10-01T05:17:02.876Z,9.20
2018-10-01T05:19:38.021Z,9.10
2018-10-01T05:22:10.173Z,9.10
2018-10-01T05:24:38.526Z,9.00
2018-10-01T05:27:06.643Z,9.00
2018-10-01T05:29:37.462Z,8.90
2018-10-01T05:32:05.556Z,8.90
2018-10-01T05:34:40.184Z,9.00
2018-10-01T05:37:11.158Z,9.00
2018-10-01T05:39:39.385Z,9.00
2018-10-01T05:42:07.438Z,9.00
2018-10-01T05:44:38.375Z,9.00
2018-10-01T05:47:06.544Z,9.10
2018-10-01T05:49:46.300Z,9.10
2018-10-01T05:52:14.449Z,9.10
2018-10-01T05:54:49.575Z,9.10
2018-10-01T05:57:22.818Z,9.10
2018-10-01T05:59:50.895Z,9.10
2018-10-01T06:02:24.914Z,9.20
2018-10-01T06:04:55.047Z,9.10
2018-10-01T06:07:23.117Z,9.20
2018-10-01T06:09:54.053Z,9.20
2018-10-01T06:12:22.081Z,9.20
2018-10-01T06:14:53.046Z,9.20
2018-10-01T06:17:21.118Z,9.20
2018-10-01T06:19:53.457Z,9.20
2018-10-01T06:22:24.653Z,9.20
2018-10-01T06:24:52.698Z,9.20
2018-10-01T06:27:23.818Z,9.20
2018-10-01T06:30:03.230Z,9.10
2018-10-01T06:32:34.320Z,9.10
2018-10-01T06:35:02.433Z,9.10
2018-10-01T06:37:44.940Z,9.10
2018-10-01T06:40:18.142Z,9.10
2018-10-01T06:42:50.361Z,9.10
2018-10-01T06:45:21.449Z,9.10
2018-10-01T06:50:31.927Z,9.10
2018-10-01T06:53:04.036Z,9.00
2018-10-01T06:55:32.572Z,9.00
2018-10-01T06:58:00.619Z,9.10
2018-10-01T07:00:35.969Z,9.10
2018-10-01T07:03:06.804Z,9.20
2018-10-01T07:05:34.899Z,9.30
2018-10-01T07:08:08.230Z,9.40
2018-10-01T07:10:44.385Z,9.40
2018-10-01T07:13:12.890Z,9.50
2018-10-01T07:15:41.176Z,9.60
2018-10-01T07:18:09.253Z,9.60
2018-10-01T07:20:37.746Z,9.70
2018-10-01T07:23:08.871Z,9.80
2018-10-01T07:25:36.926Z,9.80
2018-10-01T07:28:08.122Z,9.80
2018-10-01T07:30:40.381Z,9.90
2018-10-01T07:33:08.604Z,9.80
2018-10-01T07:35:36.685Z,9.80
2018-10-01T07:38:07.531Z,9.80
2018-10-01T07:40:35.572Z,10.00
2018-10-01T07:43:09.066Z,10.30
2018-10-01T07:45:40.132Z,10.50
2018-10-01T07:48:08.205Z,10.60
2018-10-01T07:50:43.469Z,10.60
2018-10-01T07:53:14.381Z,10.60
2018-10-01T07:55:42.477Z,10.60
2018-10-01T07:58:14.651Z,10.60
2018-10-01T08:00:42.928Z,10.70
2018-10-01T08:03:10.997Z,10.70
2018-10-01T08:05:42.114Z,10.80
2018-10-01T08:08:10.447Z,10.90
2018-10-01T08:10:38.615Z,11.00
2018-10-01T08:15:46.504Z,11.30
2018-10-01T08:18:21.884Z,11.40
2018-10-01T08:20:57.099Z,11.50
2018-10-01T08:23:29.242Z,11.60
2018-10-01T08:25:57.447Z,11.80
2018-10-01T08:28:29.814Z,11.80
2018-10-01T08:31:02.823Z,11.90
2018-10-01T08:33:32.898Z,11.90
2018-10-01T08:36:10.805Z,12.10
2018-10-01T08:38:49.010Z,12.20
2018-10-01T08:41:17.170Z,12.50
2018-10-01T08:43:49.394Z,12.60
2018-10-01T08:46:22.760Z,12.80
2018-10-01T08:49:05.611Z,13.00
2018-10-01T08:51:41.038Z,13.30
2018-10-01T08:54:15.010Z,13.30
2018-10-01T08:56:47.433Z,13.20
2018-10-01T08:59:19.671Z,13.20
2018-10-01T09:01:47.807Z,13.30
2018-10-01T09:04:15.866Z,13.20
2018-10-01T09:06:48.885Z,13.10
2018-10-01T09:09:17.082Z,13.10
2018-10-01T09:11:55.210Z,13.20
2018-10-01T09:14:26.593Z,13.40
2018-10-01T09:17:10.209Z,13.60
2018-10-01T09:19:44.577Z,13.80
2018-10-01T09:22:19.154Z,13.90
2018-10-01T09:24:50.184Z,13.90
2018-10-01T09:27:20.244Z,13.90
2018-10-01T09:29:52.617Z,13.90
2018-10-01T09:32:23.642Z,13.90
2018-10-01T09:34:54.902Z,13.90
2018-10-01T09:37:23.095Z,14.20
2018-10-01T09:39:54.125Z,14.20
2018-10-01T09:42:25.204Z,14.30
2018-10-01T09:44:53.395Z,14.40
2018-10-01T09:47:30.641Z,14.70
2018-10-01T09:50:05.092Z,14.90
2018-10-01T09:52:39.211Z,15.10
2018-10-01T09:55:07.410Z,15.30
2018-10-01T09:57:39.726Z,15.20
2018-10-01T10:00:08.816Z,15.40
2018-10-01T10:02:37.047Z,15.50
2018-10-01T10:05:05.338Z,15.40
2018-10-01T10:07:44.916Z,15.30
2018-10-01T10:10:13.133Z,15.70
2018-10-01T10:12:54.922Z,15.90
2018-10-01T10:15:23.444Z,15.80
2018-10-01T10:17:51.506Z,15.50
2018-10-01T10:20:26.693Z,15.10
2018-10-01T10:22:57.873Z,14.70
2018-10-01T10:25:26.078Z,14.40
2018-10-01T10:27:57.864Z,14.20
2018-10-01T10:30:26.503Z,14.00
2018-10-01T10:32:56.946Z,13.80
2018-10-01T10:35:27.188Z,13.70
2018-10-01T10:37:55.342Z,13.60
2018-10-01T10:40:29.942Z,13.80
2018-10-01T10:42:58.187Z,14.10
2018-10-01T10:45:31.524Z,14.60
2018-10-01T10:48:04.787Z,14.90
2018-10-01T10:50:35.503Z,15.40
2018-10-01T10:53:08.754Z,15.80
2018-10-01T10:55:39.769Z,16.00
2018-10-01T10:58:17.416Z,16.20
2018-10-01T11:00:45.563Z,16.00
2018-10-01T11:03:23.996Z,15.80
2018-10-01T11:06:04.459Z,15.50
2018-10-01T11:11:09.989Z,15.20
2018-10-01T11:13:42.407Z,15.00
2018-10-01T11:16:13.761Z,14.70
2018-10-01T11:19:00.139Z,14.30
2018-10-01T11:21:28.400Z,14.10
2018-10-01T11:23:56.646Z,13.80
2018-10-01T11:26:24.737Z,13.80
2018-10-01T11:28:52.898Z,14.00
2018-10-01T11:31:20.989Z,14.40
2018-10-01T11:33:53.822Z,14.60
2018-10-01T11:36:21.942Z,14.30
2018-10-01T11:39:03.846Z,14.00
2018-10-01T11:41:32.108Z,13.70
2018-10-01T11:44:00.138Z,13.40
2018-10-01T11:46:35.958Z,13.20
2018-10-01T11:49:04.066Z,13.10
2018-10-01T11:51:37.300Z,13.10
2018-10-01T11:54:07.547Z,13.10
2018-10-01T11:56:35.667Z,13.20
2018-10-01T11:59:15.382Z,13.20
2018-10-01T12:01:43.477Z,13.00
2018-10-01T12:04:18.961Z,12.60
2018-10-01T12:06:53.462Z,12.20
2018-10-01T12:09:27.986Z,11.80
2018-10-01T12:11:58.136Z,11.30
2018-10-01T12:14:30.425Z,11.00
2018-10-01T12:17:10.218Z,10.70
2018-10-01T12:19:44.837Z,10.40
2018-10-01T12:22:12.978Z,10.20
2018-10-01T12:24:45.187Z,10.10
2018-10-01T12:27:15.464Z,10.00
2018-10-01T12:29:43.579Z,10.20
2018-10-01T12:32:16.868Z,10.30
2018-10-01T12:34:47.804Z,10.40
2018-10-01T12:37:15.907Z,10.50
2018-10-01T12:39:57.950Z,10.70
2018-10-01T12:42:29.025Z,10.80
2018-10-01T12:45:01.453Z,11.00
2018-10-01T12:47:35.842Z,11.10
2018-10-01T12:50:10.978Z,11.20
2018-10-01T12:52:43.234Z,11.40
2018-10-01T12:55:13.245Z,11.50
2018-10-01T12:57:44.814Z,11.60
2018-10-01T13:00:12.929Z,11.70
2018-10-01T13:02:45.189Z,11.80
2018-10-01T13:05:23.155Z,11.80
2018-10-01T13:07:56.434Z,11.80
2018-10-01T13:10:28.173Z,11.80
2018-10-01T13:12:56.729Z,11.80
2018-10-01T13:15:24.905Z,11.80
2018-10-01T13:17:59.394Z,11.80
2018-10-01T13:20:36.089Z,11.80
2018-10-01T13:23:04.204Z,11.80
2018-10-01T13:25:35.089Z,11.80
2018-10-01T13:28:03.211Z,11.70
2018-10-01T13:30:40.816Z,11.60
2018-10-01T13:33:13.826Z,11.70
2018-10-01T13:35:47.707Z,11.80
2018-10-01T13:38:23.657Z,11.90
2018-10-01T13:41:08.957Z,12.00
2018-10-01T13:43:38.962Z,12.10
2018-10-01T13:46:09.887Z,12.30
2018-10-01T13:48:38.016Z,12.50
2018-10-01T13:51:06.337Z,12.60
2018-10-01T13:53:40.653Z,12.60
2018-10-01T13:56:21.440Z,12.60
2018-10-01T13:58:49.517Z,12.40
2018-10-01T14:01:24.194Z,12.00
2018-10-01T14:03:54.284Z,11.80
2018-10-01T14:06:25.681Z,11.70
2018-10-01T14:09:04.337Z,11.50
2018-10-01T14:11:38.712Z,11.30
2018-10-01T14:14:11.095Z,11.10
2018-10-01T14:16:41.924Z,11.00
2018-10-01T14:19:15.035Z,11.00
2018-10-01T14:21:56.061Z,10.90
2018-10-01T14:24:24.801Z,10.80
2018-10-01T14:27:04.668Z,10.80
2018-10-01T14:29:32.705Z,10.80
2018-10-01T14:32:01.084Z,10.70
2018-10-01T14:34:31.304Z,10.70
2018-10-01T14:36:59.374Z,10.80
2018-10-01T14:39:30.238Z,10.90
2018-10-01T14:41:58.319Z,11.10
2018-10-01T14:44:27.143Z,11.30
2018-10-01T14:46:55.261Z,11.30
2018-10-01T14:52:08.188Z,11.30
2018-10-01T14:54:40.338Z,11.30
2018-10-01T14:57:08.956Z,11.30
2018-10-01T14:59:41.581Z,11.30
2018-10-01T15:02:12.470Z,11.30
2018-10-01T15:04:40.490Z,11.30
2018-10-01T15:07:11.663Z,11.30
2018-10-01T15:09:40.229Z,11.30
2018-10-01T15:12:11.407Z,11.30
2018-10-01T15:14:39.441Z,11.20
2018-10-01T15:17:12.961Z,11.10
2018-10-01T15:19:47.289Z,11.10
2018-10-01T15:22:19.564Z,11.00
2018-10-01T15:24:49.783Z,11.00
2018-10-01T15:27:17.830Z,11.00
2018-10-01T15:29:50.218Z,10.90
2018-10-01T15:32:18.366Z,10.90
2018-10-01T15:34:46.501Z,10.80
2018-10-01T15:37:21.792Z,10.80
2018-10-01T15:39:52.650Z,10.80
2018-10-01T15:42:20.689Z,10.80
2018-10-01T15:44:53.090Z,10.80
2018-10-01T15:47:24.076Z,10.80
2018-10-01T15:49:52.150Z,10.70
2018-10-01T15:52:26.498Z,10.70
2018-10-01T15:54:59.078Z,10.70
2018-10-01T15:57:29.973Z,10.60
2018-10-01T15:59:58.208Z,10.60
2018-10-01T16:02:31.426Z,10.50
2018-10-01T16:05:12.969Z,10.50
2018-10-01T16:07:47.691Z,10.50
2018-10-01T16:10:15.876Z,10.40
2018-10-01T16:12:50.390Z,10.30
2018-10-01T16:15:25.127Z,10.30
2018-10-01T16:17:53.180Z,10.20
2018-10-01T16:20:26.372Z,10.20
2018-10-01T16:22:56.393Z,10.10
2018-10-01T16:25:27.305Z,10.00
2018-10-01T16:27:57.340Z,10.00
2018-10-01T16:30:28.210Z,9.90
2018-10-01T16:32:56.359Z,9.80
2018-10-01T16:35:28.664Z,9.70
2018-10-01T16:38:03.839Z,9.70
2018-10-01T16:40:33.975Z,9.70
2018-10-01T16:43:02.055Z,9.60
2018-10-01T16:45:36.604Z,9.60
2018-10-01T16:48:11.190Z,9.40
2018-10-01T16:50:39.256Z,9.10
2018-10-01T16:53:19.045Z,8.80
2018-10-01T16:55:47.085Z,8.80
2018-10-01T16:58:21.248Z,8.50
2018-10-01T17:00:49.291Z,8.40
2018-10-01T17:03:25.460Z,8.40
2018-10-01T17:05:58.946Z,8.40
2018-10-01T17:08:32.227Z,8.40
2018-10-01T17:11:03.406Z,8.30
2018-10-01T17:13:31.529Z,8.20
2018-10-01T17:16:05.818Z,8.10
2018-10-01T17:18:37.862Z,8.00
2018-10-01T17:21:05.930Z,7.90
2018-10-01T17:23:40.395Z,7.80
2018-10-01T17:26:22.297Z,7.70
2018-10-01T17:28:50.818Z,7.60
2018-10-01T17:31:18.957Z,7.50
2018-10-01T17:33:50.181Z,7.50
2018-10-01T17:36:25.649Z,7.40
2018-10-01T17:38:56.596Z,7.40
2018-10-01T17:41:24.663Z,7.40
2018-10-01T17:44:00.068Z,7.40
2018-10-01T17:46:34.632Z,7.40
2018-10-01T17:49:11.131Z,7.50
2018-10-01T17:51:43.356Z,7.50
2018-10-01T17:54:15.530Z,7.60
2018-10-01T17:56:45.936Z,7.60
2018-10-01T17:59:17.031Z,7.60
2018-10-01T18:01:49.132Z,7.60
2018-10-01T18:04:21.335Z,7.60
2018-10-01T18:06:49.575Z,7.60
2018-10-01T18:09:17.717Z,7.60
2018-10-01T18:11:52.062Z,7.60
2018-10-01T18:14:24.478Z,7.60
2018-10-01T18:17:04.251Z,7.60
2018-10-01T18:19:35.176Z,7.60
2018-10-01T18:22:05.783Z,7.50
2018-10-01T18:24:38.916Z,7.50
2018-10-01T18:27:06.932Z,7.50
2018-10-01T18:29:46.697Z,7.50
2018-10-01T18:32:14.893Z,7.40
2018-10-01T18:34:49.513Z,7.40
2018-10-01T18:37:20.618Z,7.40
2018-10-01T18:39:53.249Z,7.30
2018-10-01T18:42:28.633Z,7.30
2018-10-01T18:44:59.366Z,7.30
2018-10-01T18:47:27.466Z,7.20
2018-10-01T18:50:00.476Z,7.10
2018-10-01T18:52:28.561Z,7.10
2018-10-01T18:54:59.640Z,7.00
2018-10-01T18:57:28.549Z,6.90
2018-10-01T19:00:03.088Z,6.80
2018-10-01T19:02:37.801Z,6.80
2018-10-01T19:05:09.562Z,6.80
2018-10-01T19:07:39.989Z,6.70
2018-10-01T19:10:17.900Z,6.60
2018-10-01T19:12:52.225Z,6.60
2018-10-01T19:15:26.804Z,6.50
2018-10-01T19:17:55.222Z,6.50
2018-10-01T19:20:28.261Z,6.40
2018-10-01T19:22:59.032Z,6.40
2018-10-01T19:25:30.281Z,6.40
2018-10-01T19:28:01.625Z,6.40
2018-10-01T19:30:32.517Z,6.30
2018-10-01T19:33:04.132Z,6.30
2018-10-01T19:35:38.875Z,6.30
2018-10-01T19:38:07.220Z,6.30
2018-10-01T19:40:35.697Z,6.20
2018-10-01T19:43:03.838Z,6.20
2018-10-01T19:45:44.133Z,6.20
2018-10-01T19:48:24.702Z,6.20
2018-10-01T19:50:59.309Z,6.20
2018-10-01T19:53:42.159Z,6.10
2018-10-01T19:56:12.535Z,6.10
2018-10-01T19:58:43.398Z,6.10
2018-10-01T20:01:18.540Z,6.10
2018-10-01T20:03:48.681Z,6.10
2018-10-01T20:06:16.737Z,6.10
2018-10-01T20:08:47.748Z,6.10
2018-10-01T20:11:15.944Z,6.10
2018-10-01T20:13:47.089Z,6.10
2018-10-01T20:16:18.426Z,6.10
2018-10-01T20:18:48.633Z,6.10
2018-10-01T20:21:16.891Z,6.10
2018-10-01T20:23:51.167Z,6.10
2018-10-01T20:26:22.047Z,6.20
2018-10-01T20:28:50.308Z,6.20
2018-10-01T20:31:20.997Z,6.20
2018-10-01T20:33:49.139Z,6.20
2018-10-01T20:36:23.961Z,6.20
2018-10-01T20:38:52.069Z,6.20
2018-10-01T20:41:25.406Z,6.20
2018-10-01T20:43:58.677Z,6.20
2018-10-01T20:46:28.958Z,6.20
2018-10-01T20:48:57.045Z,6.20
2018-10-01T20:51:31.440Z,6.20
2018-10-01T20:54:03.945Z,6.20
2018-10-01T20:56:40.666Z,6.30
2018-10-01T20:59:08.950Z,6.30
2018-10-01T21:01:43.548Z,6.30
2018-10-01T21:04:11.574Z,6.30
2018-10-01T21:06:51.391Z,6.30
2018-10-01T21:09:23.704Z,6.20
2018-10-01T21:11:59.763Z,6.20
2018-10-01T21:14:37.848Z,6.20
2018-10-01T21:17:06.146Z,6.10
2018-10-01T21:19:36.963Z,6.10
2018-10-01T21:22:05.301Z,6.10
2018-10-01T21:24:33.536Z,6.10
2018-10-01T21:27:07.955Z,6.00
2018-10-01T21:29:42.477Z,6.00
2018-10-01T21:32:12.514Z,6.00
2018-10-01T21:34:41.117Z,6.00
2018-10-01T21:37:12.430Z,5.90
2018-10-01T21:40:17.767Z,5.90
2018-10-01T21:42:53.915Z,5.90
2018-10-01T21:45:24.169Z,5.80
2018-10-01T21:47:52.199Z,5.70
2018-10-01T21:50:26.149Z,5.70
2018-10-01T21:52:54.281Z,5.70
2018-10-01T21:55:34.046Z,5.70
2018-10-01T21:58:02.151Z,5.60
2018-10-01T22:00:38.556Z,5.60
2018-10-01T22:03:16.124Z,5.60
2018-10-01T22:05:49.478Z,5.60
2018-10-01T22:08:20.526Z,5.50
2018-10-01T22:10:51.662Z,5.50
2018-10-01T22:13:19.776Z,5.50
2018-10-01T22:15:52.117Z,5.50
2018-10-01T22:18:22.132Z,5.50
2018-10-01T22:20:50.205Z,5.40
2018-10-01T22:23:24.540Z,5.40
2018-10-01T22:26:06.280Z,5.40
2018-10-01T22:28:39.222Z,5.40
2018-10-01T22:31:07.659Z,5.30
2018-10-01T22:33:35.839Z,5.30
2018-10-01T22:36:13.403Z,5.30
2018-10-01T22:38:41.709Z,5.30
2018-10-01T22:41:13.948Z,5.20
2018-10-01T22:43:44.860Z,5.20
2018-10-01T22:46:12.995Z,5.20
2018-10-01T22:48:51.090Z,5.20
2018-10-01T22:51:31.762Z,5.20
2018-10-01T22:54:04.105Z,5.20
2018-10-01T22:56:34.975Z,5.10
2018-10-01T22:59:03.156Z,5.10
2018-10-01T23:01:34.269Z,5.10
2018-10-01T23:04:05.337Z,5.00
2018-10-01T23:06:38.625Z,5.00
2018-10-01T23:09:09.990Z,4.90
2018-10-01T23:11:40.779Z,4.90
2018-10-01T23:14:09.059Z,4.90
2018-10-01T23:16:43.499Z,4.90
2018-10-01T23:19:15.947Z,4.90
2018-10-01T23:21:51.213Z,4.90
2018-10-01T23:24:31.108Z,4.90
2018-10-01T23:26:59.206Z,4.80
2018-10-01T23:29:31.595Z,4.80
2018-10-01T23:32:13.762Z,4.80
2018-10-01T23:34:41.955Z,4.80
2018-10-01T23:37:10.153Z,4.70
2018-10-01T23:39:44.675Z,4.70
2018-10-01T23:42:22.976Z,4.70
2018-10-01T23:44:57.685Z,4.70
2018-10-01T23:47:25.763Z,4.70
2018-10-01T23:49:58.182Z,4.00
2018-10-01T23:52:38.529Z,4.70
2018-10-01T23:55:12.323Z,4.70
2018-10-01T23:57:49.914Z,4.60
